Airfield :
LOGIN :

Register | Disclaimer

   EN    FR    IT 

 










Legend :    VFR   Marginal VFR   IFR   Intensive IFR   Very Intensive IFR
Visi :
Ceiling :
>= 8 km
>= 3000ft
5 to 8 km
1000 to 3000 ft
1500m to 5 km
500 to 1000 ft
800 to 1500m
200 to 500 ft
< 800m
< 200 ft
Symbols :   Thunderstorms  Fog  Heavy snow  Heavy precipitations  Wind > 20 kt
SIGMETs :     Misc.  Thunderstorms  Icing  Turbulence  Mountain Waves  Volcanic Ashes






- Airport Elevation : 1906 ft
- IATA code : INN


LOWI - Innsbruck

CURRENT METAR :
  • 161220Z AUTO VRB03KT 9999 FEW070 BKN080 25/15 Q1016 NOSIG

EXPIRED METARs :
  • 161150Z AUTO VRB02KT 9999 BKN080 25/15 Q1016 NOSIG
  • 161120Z AUTO 24003KT 170V290 9999 BKN080 25/17 Q1016 NOSIG
  • 161050Z AUTO VRB02KT 9999 FEW070 BKN080 24/17 Q1017 NOSIG
  • 161020Z AUTO 15004KT 080V250 9999 FEW026 SCT090 24/17 Q1017 NOSIG
  • 160950Z AUTO VRB04KT 9999 FEW070 BKN090 23/17 Q1017 NOSIG
  • 160920Z AUTO 07004KT 030V150 9999 FEW090 SCT120 23/17 Q1017 NOSIG
  • 160850Z AUTO 09004KT 060V150 9999 BKN120 22/18 Q1018 NOSIG
  • 160820Z AUTO 12004KT 080V170 9999 FEW120 22/18 Q1018 NOSIG
  • 160750Z AUTO 07004KT 030V110 9999 FEW090 21/18 Q1018 NOSIG
  • 160720Z AUTO 08004KT 050V120 9999 FEW080 20/17 Q1018 NOSIG

TAF TAF LOWI
Valid from the 16 at 12:00 until the 17 at 12:00 UTC


161115Z 1612/1712 VRB04KT 9999 FEW050 SCT080 TX25/1614Z TN18/1704Z
TEMPO 1612/1616 07007KT
TEMPO 1613/1620 27007KT -SHRA FEW060CB SCT070
PROB30
TEMPO 1615/1618 VRB15G30KT TSRA
TEMPO 1710/1712 27007KT -SHRA



MET'MAP, your aeronautical weather chart ! - Copyright ORBIFLY December 2007 - Disclaimer

ORBIFLY MET'MAP TEAM :

Programming & Development : Alexandra Zaïnal
Original concept : Baudouin d'Aumeries
Technical & hardware support : Manuel Goepfert
Assistance : Marc-Olivier Méhu




SOURCES & CREDITS :

   NOAA